Time;durP1;ratioP1;P1;durP2;ratioP2;P2;SDS_P1;SDS_P2;PMS_P1;PMS_P2;Temp;Humidity;BMP_temperature;BMP_pressure;BME280_temperature;BME280_humidity;BME280_pressure;Samples;Min_cycle;Max_cycle;Signal;HPM_P1;HPM_P2
2021/10/26 00:02:14;;;;;;;29.00;10.65;;;;;;;11.52;96.36;100852.34;5012608;28;20461;-75
2021/10/26 00:04:40;;;;;;;30.65;11.00;;;;;;;11.52;96.16;100857.81;5013415;28;20384;-75
2021/10/26 00:07:05;;;;;;;31.48;12.27;;;;;;;11.52;96.31;100852.34;5014322;28;20082;-75
2021/10/26 00:09:31;;;;;;;36.95;11.38;;;;;;;11.54;96.48;100852.09;5013402;28;20025;-74
2021/10/26 00:11:56;;;;;;;29.63;13.18;;;;;;;11.53;96.65;100859.44;5014140;28;20469;-75
2021/10/26 00:14:21;;;;;;;28.20;12.25;;;;;;;11.53;96.55;100845.78;4992647;28;20461;-74
2021/10/26 00:16:47;;;;;;;35.53;13.73;;;;;;;11.54;96.69;100852.91;5011680;28;20028;-75
2021/10/26 00:19:13;;;;;;;28.25;11.43;;;;;;;11.56;96.65;100852.59;4995612;28;20068;-75
2021/10/26 00:21:39;;;;;;;31.60;11.65;;;;;;;11.56;96.74;100837.03;5014131;28;20084;-75
2021/10/26 00:24:05;;;;;;;25.77;11.88;;;;;;;11.55;96.61;100835.41;4995532;28;20089;-75
2021/10/26 00:26:31;;;;;;;26.05;11.50;;;;;;;11.54;96.80;100847.44;4993135;28;20034;-74
2021/10/26 00:28:56;;;;;;;32.22;12.15;;;;;;;11.55;96.68;100850.97;4995178;28;20029;-74
2021/10/26 00:31:22;;;;;;;34.20;12.10;;;;;;;11.56;96.79;100839.75;5012872;28;20041;-74
2021/10/26 00:33:48;;;;;;;26.27;10.77;;;;;;;11.56;96.97;100839.75;5013901;28;20014;-75
2021/10/26 00:36:13;;;;;;;36.95;13.73;;;;;;;11.60;96.97;100842.78;4992026;28;20073;-75
2021/10/26 00:38:38;;;;;;;26.45;10.00;;;;;;;11.56;96.89;100839.75;4975451;28;20075;-74
2021/10/26 00:41:04;;;;;;;33.33;11.90;;;;;;;11.55;96.78;100831.88;5011202;28;20030;-74
2021/10/26 00:43:30;;;;;;;29.52;11.95;;;;;;;11.55;96.85;100829.94;4995261;28;20492;-74
2021/10/26 00:45:55;;;;;;;24.25;9.45;;;;;;;11.56;96.79;100830.75;4978731;28;20055;-75
2021/10/26 00:48:21;;;;;;;37.50;13.93;;;;;;;11.56;96.77;100834.31;4995999;28;20041;-74
2021/10/26 00:50:46;;;;;;;42.08;12.98;;;;;;;11.55;96.78;100829.94;4992005;28;20034;-75
2021/10/26 00:53:16;;;;;;;39.17;14.18;;;;;;;11.53;96.86;100832.13;4995354;28;20440;-75
2021/10/26 00:55:41;;;;;;;26.10;11.80;;;;;;;11.54;96.99;100833.78;4995191;28;20037;-75
2021/10/26 00:58:06;;;;;;;33.72;11.85;;;;;;;11.53;96.97;100837.59;4991519;28;20076;-74
2021/10/26 01:00:32;;;;;;;33.22;11.50;;;;;;;11.52;96.93;100826.97;5007829;28;20429;-73
2021/10/26 01:02:57;;;;;;;32.30;10.80;;;;;;;11.51;97.01;100830.78;5012517;28;20033;-74
2021/10/26 01:05:22;;;;;;;25.90;10.73;;;;;;;11.49;97.04;100825.63;5012379;28;20048;-74
2021/10/26 01:07:48;;;;;;;19.30;7.75;;;;;;;11.49;97.07;100827.53;4995743;28;20034;-75
2021/10/26 01:10:13;;;;;;;23.40;10.38;;;;;;;11.47;96.86;100827.78;5011908;28;20080;-75
2021/10/26 01:12:39;;;;;;;29.10;10.27;;;;;;;11.48;96.85;100818.50;5013227;28;20056;-75
2021/10/26 01:15:05;;;;;;;26.13;11.25;;;;;;;11.50;96.90;100821.78;4978367;28;20508;-75
2021/10/26 01:17:30;;;;;;;22.00;9.98;;;;;;;11.53;97.17;100814.94;4995576;28;20109;-74
2021/10/26 01:19:56;;;;;;;40.20;13.88;;;;;;;11.53;97.05;100818.47;5011880;28;20018;-75
2021/10/26 01:22:26;;;;;;;35.05;15.25;;;;;;;11.56;97.15;100815.19;4979257;28;20473;-76
2021/10/26 01:24:51;;;;;;;34.78;13.40;;;;;;;11.59;97.15;100821.19;5012211;28;20041;-76
2021/10/26 01:27:17;;;;;;;36.35;13.63;;;;;;;11.61;97.19;100821.75;5012820;28;20033;-75
2021/10/26 01:29:42;;;;;;;35.63;14.52;;;;;;;11.62;97.30;100812.44;5011521;28;20026;-76
2021/10/26 01:32:09;;;;;;;39.13;14.63;;;;;;;11.63;97.09;100809.44;5012764;28;20036;-76
2021/10/26 01:34:35;;;;;;;29.70;12.57;;;;;;;11.65;97.29;100811.88;4994448;28;20468;-75
2021/10/26 01:37:01;;;;;;;41.88;13.73;;;;;;;11.66;97.32;100802.59;4995248;28;20046;-76
2021/10/26 01:39:27;;;;;;;34.45;14.40;;;;;;;11.68;97.23;100814.06;4994480;28;20038;-76
2021/10/26 01:41:53;;;;;;;34.22;13.73;;;;;;;11.68;97.10;100805.88;5012933;28;20325;-75
2021/10/26 01:44:18;;;;;;;40.63;15.30;;;;;;;11.67;96.97;100810.50;5011961;28;20029;-76
2021/10/26 01:46:44;;;;;;;36.10;13.65;;;;;;;11.67;97.14;100810.50;5012668;28;20028;-76
2021/10/26 01:49:09;;;;;;;38.95;14.43;;;;;;;11.69;97.29;100807.50;5012072;28;20029;-75
2021/10/26 01:51:35;;;;;;;38.20;14.75;;;;;;;11.69;97.24;100818.44;5012754;28;20030;-75
2021/10/26 01:54:00;;;;;;;33.30;13.60;;;;;;;11.68;97.13;100822.28;5012739;28;20448;-76
2021/10/26 01:56:25;;;;;;;27.73;12.38;;;;;;;11.67;97.18;100832.34;4998047;28;20026;-75
2021/10/26 01:58:51;;;;;;;32.50;14.13;;;;;;;11.66;97.10;100825.25;5010780;28;20037;-75
2021/10/26 02:01:16;;;;;;;30.13;12.30;;;;;;;11.67;97.13;100817.88;4992732;28;20034;-75
2021/10/26 02:03:42;;;;;;;36.40;13.38;;;;;;;11.66;96.94;100813.53;5011651;28;20026;-75
2021/10/26 02:06:07;;;;;;;36.88;14.20;;;;;;;11.63;96.85;100809.44;4990861;28;20065;-75
2021/10/26 02:08:33;;;;;;;35.72;14.05;;;;;;;11.63;97.07;100803.16;5012286;28;20009;-76
2021/10/26 02:10:58;;;;;;;37.10;14.23;;;;;;;11.64;97.10;100816.53;4994205;28;20064;-76
2021/10/26 02:13:24;;;;;;;23.50;10.05;;;;;;;11.65;97.06;100806.41;4991538;28;20029;-76
2021/10/26 02:15:49;;;;;;;33.25;14.52;;;;;;;11.63;96.89;100809.44;4977730;28;20513;-75
2021/10/26 02:18:14;;;;;;;29.38;12.90;;;;;;;11.62;97.06;100828.81;4990610;28;20038;-76
2021/10/26 02:20:40;;;;;;;31.70;14.52;;;;;;;11.62;96.98;100806.97;4993497;28;20029;-76
2021/10/26 02:23:05;;;;;;;34.53;13.93;;;;;;;11.63;97.02;100803.97;4996921;28;20115;-76
2021/10/26 02:25:31;;;;;;;36.95;13.45;;;;;;;11.62;96.86;100801.53;5015335;28;20026;-76
2021/10/26 02:27:56;;;;;;;33.78;12.68;;;;;;;11.61;96.85;100802.63;5015319;28;20033;-76
2021/10/26 02:30:22;;;;;;;29.17;11.75;;;;;;;11.59;96.97;100808.34;5015276;28;20022;-76
2021/10/26 02:32:48;;;;;;;22.70;9.00;;;;;;;11.55;96.75;100808.09;5016431;28;20028;-76
2021/10/26 02:35:13;;;;;;;22.10;9.73;;;;;;;11.51;96.54;100809.78;4997649;28;20057;-76
2021/10/26 02:37:39;;;;;;;28.05;10.48;;;;;;;11.47;96.55;100802.41;5015381;28;20097;-76
2021/10/26 02:40:05;;;;;;;29.77;11.40;;;;;;;11.42;96.57;100797.78;4995671;28;20040;-76
2021/10/26 02:42:30;;;;;;;21.52;9.18;;;;;;;11.36;96.55;100800.81;5016101;28;20056;-76
2021/10/26 02:44:56;;;;;;;16.63;6.50;;;;;;;11.28;95.97;100796.75;4997704;28;20025;-76
2021/10/26 02:47:21;;;;;;;15.82;7.20;;;;;;;11.24;95.47;100791.03;5015889;28;20026;-76
2021/10/26 02:49:47;;;;;;;13.02;6.10;;;;;;;11.21;95.19;100796.22;4995061;28;20469;-76
2021/10/26 02:52:12;;;;;;;10.98;4.72;;;;;;;11.19;95.20;100792.97;5015744;28;20543;-76
2021/10/26 02:54:38;;;;;;;23.48;7.93;;;;;;;11.18;95.12;100778.50;5014121;28;20022;-76
2021/10/26 02:57:03;;;;;;;19.60;7.57;;;;;;;11.21;94.83;100779.84;4988041;28;20481;-77
2021/10/26 02:59:29;;;;;;;25.35;9.35;;;;;;;11.21;94.84;100783.41;5015373;28;20030;-77
2021/10/26 03:01:54;;;;;;;25.40;10.27;;;;;;;11.26;94.78;100777.09;5015120;28;20018;-77
2021/10/26 03:04:20;;;;;;;25.50;10.35;;;;;;;11.26;94.96;100777.09;5015705;28;20033;-76
2021/10/26 03:06:46;;;;;;;26.65;10.40;;;;;;;11.24;95.17;100768.38;4981002;28;20018;-75
2021/10/26 03:09:13;;;;;;;27.80;12.25;;;;;;;11.25;95.09;100770.03;5015545;28;20021;-76
2021/10/26 03:11:39;;;;;;;23.77;10.93;;;;;;;11.26;95.11;100777.09;5014490;28;20029;-76
2021/10/26 03:14:05;;;;;;;23.38;10.57;;;;;;;11.27;95.27;100778.75;5015337;28;20465;-76
2021/10/26 03:16:30;;;;;;;33.88;10.80;;;;;;;11.25;95.40;100768.09;4996986;28;20022;-76
2021/10/26 03:18:56;;;;;;;21.88;9.52;;;;;;;11.27;95.34;100767.84;4998138;28;20510;-76
2021/10/26 03:21:21;;;;;;;28.70;10.45;;;;;;;11.27;95.39;100773.28;5012063;28;20033;-76
2021/10/26 03:23:47;;;;;;;24.50;10.82;;;;;;;11.27;95.70;100774.09;5015060;28;20061;-76
2021/10/26 03:26:12;;;;;;;26.75;10.52;;;;;;;11.29;95.51;100776.53;5013820;28;20440;-76
2021/10/26 03:28:37;;;;;;;18.90;8.95;;;;;;;11.29;95.76;100771.09;4996370;28;20022;-77
2021/10/26 03:31:04;;;;;;;24.15;10.85;;;;;;;11.30;95.79;100772.72;5014112;28;20041;-76
2021/10/26 03:33:31;;;;;;;33.30;11.13;;;;;;;11.32;95.67;100775.97;5014712;28;20076;-76
2021/10/26 03:35:59;;;;;;;29.17;9.77;;;;;;;11.33;95.66;100778.44;5014094;28;20025;-77
2021/10/26 03:38:24;;;;;;;25.13;8.75;;;;;;;11.36;95.63;100784.44;4997662;28;20026;-75
2021/10/26 03:40:50;;;;;;;29.80;9.68;;;;;;;11.37;95.65;100780.63;5013811;28;20045;-76
2021/10/26 03:43:15;;;;;;;22.80;8.00;;;;;;;11.37;95.57;100778.69;5014996;28;20030;-76
2021/10/26 03:45:40;;;;;;;23.27;8.05;;;;;;;11.37;95.41;100786.88;5013683;28;20025;-77
2021/10/26 03:48:09;;;;;;;24.65;8.05;;;;;;;11.38;95.54;100779.53;5014495;28;20033;-76
2021/10/26 03:50:34;;;;;;;26.50;8.70;;;;;;;11.39;95.66;100784.69;5013131;28;20026;-76
2021/10/26 03:52:59;;;;;;;20.00;7.82;;;;;;;11.37;95.31;100770.50;5014428;28;20072;-76
2021/10/26 03:55:25;;;;;;;17.73;8.15;;;;;;;11.36;95.43;100777.06;5013715;28;20033;-76
2021/10/26 03:57:50;;;;;;;30.02;8.65;;;;;;;11.36;95.25;100766.16;5014330;28;20025;-76
2021/10/26 04:00:16;;;;;;;22.95;9.15;;;;;;;11.36;95.29;100771.59;5013499;28;20034;-76
2021/10/26 04:02:42;;;;;;;22.33;9.13;;;;;;;11.37;95.51;100767.78;5014446;28;20033;-76
2021/10/26 04:05:39;;;;;;;21.52;8.88;;;;;;;11.38;95.31;100763.97;5013165;28;20473;-76
2021/10/26 04:08:00;;;;;;;23.60;8.88;;;;;;;11.39;95.40;100772.97;5012792;28;20061;-76
2021/10/26 04:10:47;;;;;;;27.73;9.23;;;;;;;11.38;95.24;100772.16;5013572;28;20473;-76
2021/10/26 04:13:12;;;;;;;26.75;9.65;;;;;;;11.39;95.50;100764.78;5014106;28;20022;-76
2021/10/26 04:15:39;;;;;;;17.00;8.60;;;;;;;11.39;95.48;100760.13;4996281;28;20048;-76
2021/10/26 04:18:04;;;;;;;24.92;10.45;;;;;;;11.41;95.72;100757.94;4996561;28;20029;-75
2021/10/26 04:20:29;;;;;;;23.30;9.68;;;;;;;11.41;95.74;100768.06;5012218;28;20088;-76
2021/10/26 04:22:56;;;;;;;23.92;8.73;;;;;;;11.41;95.83;100759.88;5014083;28;20045;-76
2021/10/26 04:25:22;;;;;;;29.60;8.60;;;;;;;11.42;95.69;100758.75;5012685;28;20022;-76
2021/10/26 04:27:47;;;;;;;29.52;8.70;;;;;;;11.44;95.93;100759.31;5013956;28;20018;-76
2021/10/26 04:30:12;;;;;;;22.52;9.55;;;;;;;11.45;95.97;100764.47;5012970;28;20018;-76
2021/10/26 04:32:39;;;;;;;24.17;8.43;;;;;;;11.44;95.82;100768.31;4996363;28;20045;-75
2021/10/26 04:35:05;;;;;;;20.15;8.50;;;;;;;11.42;95.74;100765.03;5013831;28;20046;-76
2021/10/26 04:37:30;;;;;;;20.88;8.07;;;;;;;11.42;95.82;100759.56;5013201;28;20470;-76
2021/10/26 04:39:56;;;;;;;20.92;7.18;;;;;;;11.40;95.74;100756.28;4977287;28;20022;-76
2021/10/26 04:42:22;;;;;;;13.90;5.55;;;;;;;11.40;95.65;100767.22;5012564;28;20040;-76
2021/10/26 04:44:47;;;;;;;18.70;4.75;;;;;;;11.37;95.55;100761.50;5012977;28;20088;-76
2021/10/26 04:47:13;;;;;;;13.00;4.53;;;;;;;11.32;95.20;100754.16;5012747;28;20048;-76
2021/10/26 04:49:38;;;;;;;12.98;4.10;;;;;;;11.29;95.13;100768.34;5011545;28;20041;-76
2021/10/26 04:52:03;;;;;;;13.98;3.83;;;;;;;11.27;94.78;100756.94;4994286;28;20117;-76
2021/10/26 04:54:29;;;;;;;10.05;3.97;;;;;;;11.25;94.29;100761.84;5013373;28;20041;-76
2021/10/26 04:56:55;;;;;;;14.00;4.30;;;;;;;11.26;94.25;100771.66;4980167;28;20026;-76
2021/10/26 04:59:20;;;;;;;8.90;3.30;;;;;;;11.24;93.79;100773.81;5007594;28;20045;-76
2021/10/26 05:01:45;;;;;;;14.68;3.08;;;;;;;11.23;93.75;100777.66;5012240;28;20026;-76
2021/10/26 05:04:11;;;;;;;11.35;2.63;;;;;;;11.24;93.16;100773.81;4996141;28;20041;-76
2021/10/26 05:06:36;;;;;;;8.88;2.70;;;;;;;11.21;92.92;100769.78;5012335;28;20401;-76
2021/10/26 05:09:03;;;;;;;13.85;3.78;;;;;;;11.20;92.79;100770.03;5013391;28;20021;-76
2021/10/26 05:11:28;;;;;;;8.82;2.83;;;;;;;11.19;92.45;100760.22;5012599;28;20030;-76
2021/10/26 05:13:54;;;;;;;11.57;3.47;;;;;;;11.18;92.43;100764.03;5013224;28;20018;-76
2021/10/26 05:16:20;;;;;;;9.02;2.90;;;;;;;11.16;92.30;100772.50;5012258;28;20030;-76
2021/10/26 05:18:50;;;;;;;13.30;2.72;;;;;;;11.15;92.00;100765.41;5013153;28;20477;-76
2021/10/26 05:21:20;;;;;;;11.45;3.20;;;;;;;11.16;91.89;100777.13;4989467;28;20113;-76
2021/10/26 05:23:48;;;;;;;14.65;3.60;;;;;;;11.18;91.73;100774.94;5011959;28;20041;-75
2021/10/26 05:26:13;;;;;;;11.50;3.22;;;;;;;11.18;91.72;100780.41;4975426;28;20065;-76
2021/10/26 05:28:39;;;;;;;9.25;3.40;;;;;;;11.19;91.80;100777.41;5010266;28;20489;-76
2021/10/26 05:31:05;;;;;;;13.38;4.40;;;;;;;11.21;91.73;100774.38;5011958;28;20121;-76
2021/10/26 05:33:30;;;;;;;14.63;4.55;;;;;;;11.20;91.88;100779.03;5012787;28;20025;-76
2021/10/26 05:35:55;;;;;;;20.33;3.72;;;;;;;11.18;91.75;100797.59;4978634;28;20080;-76
2021/10/26 05:38:21;;;;;;;13.05;3.33;;;;;;;11.16;91.67;100782.59;5012909;28;20083;-76
2021/10/26 05:40:46;;;;;;;12.20;3.25;;;;;;;11.15;91.75;100775.50;5011969;28;20410;-76
2021/10/26 05:43:12;;;;;;;12.82;3.97;;;;;;;11.14;91.66;100787.53;5012908;28;20380;-76
2021/10/26 05:45:44;;;;;;;14.73;4.03;;;;;;;11.13;91.90;100783.16;5011908;28;20034;-76
2021/10/26 05:48:10;;;;;;;11.13;3.80;;;;;;;11.13;91.69;100788.59;4996509;28;20056;-76
2021/10/26 05:50:35;;;;;;;16.60;4.07;;;;;;;11.11;91.84;100786.97;5010026;28;20030;-76
2021/10/26 05:53:00;;;;;;;7.65;3.50;;;;;;;11.10;91.61;100785.34;5012594;28;20420;-75
2021/10/26 05:55:26;;;;;;;21.23;4.03;;;;;;;11.10;91.84;100789.97;4995126;28;20034;-76
2021/10/26 05:57:51;;;;;;;15.15;3.55;;;;;;;11.08;91.75;100787.53;5013596;28;20029;-76
2021/10/26 06:00:17;;;;;;;17.23;4.80;;;;;;;11.08;91.79;100793.00;5016690;28;20022;-76
2021/10/26 06:02:42;;;;;;;16.02;4.22;;;;;;;11.08;91.87;100798.44;5015672;28;20477;-75
2021/10/26 06:05:10;;;;;;;19.65;5.22;;;;;;;11.08;91.98;100782.09;5016435;28;20083;-75
2021/10/26 06:07:36;;;;;;;16.60;3.40;;;;;;;11.08;92.05;100790.28;5015573;28;20079;-76
2021/10/26 06:10:01;;;;;;;14.52;4.13;;;;;;;11.07;92.04;100802.25;5016635;28;20405;-75
2021/10/26 06:12:30;;;;;;;8.77;3.17;;;;;;;11.07;92.08;100796.81;4997921;28;20025;-76
2021/10/26 06:14:56;;;;;;;15.75;3.65;;;;;;;11.07;91.97;100790.53;5016292;28;20029;-75
2021/10/26 06:17:21;;;;;;;18.05;4.40;;;;;;;11.08;92.43;100797.63;4981890;28;20038;-75
2021/10/26 06:19:46;;;;;;;15.00;4.78;;;;;;;11.07;92.14;100798.72;4997652;28;20033;-75
2021/10/26 06:22:12;;;;;;;19.17;5.80;;;;;;;11.07;92.08;100802.25;4997751;28;20026;-76
2021/10/26 06:24:37;;;;;;;18.67;4.97;;;;;;;11.06;91.93;100803.34;4998712;28;20069;-75
2021/10/26 06:27:03;;;;;;;27.42;4.82;;;;;;;11.07;92.14;100809.63;5015238;28;20026;-75
2021/10/26 06:29:29;;;;;;;14.52;4.50;;;;;;;11.07;92.35;100801.44;5016146;28;20486;-76
2021/10/26 06:31:55;;;;;;;18.98;5.72;;;;;;;11.04;92.38;100808.28;4997836;28;20080;-76
2021/10/26 06:34:20;;;;;;;19.52;4.38;;;;;;;11.03;91.96;100806.66;5016196;28;20030;-76
2021/10/26 06:36:46;;;;;;;15.00;4.88;;;;;;;11.01;92.63;100803.38;4997531;28;20056;-75
2021/10/26 06:39:11;;;;;;;17.60;4.78;;;;;;;10.99;92.52;100811.00;5002562;28;20034;-75
2021/10/26 06:41:37;;;;;;;19.20;5.00;;;;;;;10.96;92.43;100811.56;5014368;28;20026;-75
2021/10/26 06:44:02;;;;;;;20.90;5.10;;;;;;;10.97;92.74;100813.22;5015782;28;20049;-76
2021/10/26 06:46:28;;;;;;;15.15;3.85;;;;;;;10.96;92.66;100816.19;4983855;28;20385;-75
2021/10/26 06:48:53;;;;;;;17.95;4.93;;;;;;;10.95;92.71;100830.94;4997284;28;20022;-76
2021/10/26 06:51:19;;;;;;;16.92;4.65;;;;;;;10.95;92.75;100829.03;5010333;28;20026;-77
2021/10/26 06:53:44;;;;;;;14.30;4.40;;;;;;;10.97;92.76;100831.50;5006018;28;20032;-76
2021/10/26 06:56:15;;;;;;;16.77;4.97;;;;;;;10.95;92.63;100823.56;4984848;28;20938;-76
2021/10/26 06:58:40;;;;;;;19.88;4.72;;;;;;;10.92;92.80;100817.84;5015821;28;20021;-76
2021/10/26 07:01:09;;;;;;;19.95;4.63;;;;;;;10.91;92.77;100825.19;4980846;28;20076;-77
2021/10/26 07:03:35;;;;;;;17.98;4.10;;;;;;;10.89;92.95;100830.13;5015611;28;20026;-76
2021/10/26 07:06:02;;;;;;;16.65;5.15;;;;;;;10.89;93.00;100835.59;4997255;28;20022;-74
2021/10/26 07:08:27;;;;;;;24.42;4.78;;;;;;;10.90;93.33;100839.94;5014856;28;20018;-75
2021/10/26 07:10:56;;;;;;;20.50;4.40;;;;;;;10.92;93.11;100837.75;5015601;28;20037;-77
2021/10/26 07:13:22;;;;;;;18.13;4.40;;;;;;;10.97;93.11;100842.41;4997731;28;20034;-75
2021/10/26 07:15:48;;;;;;;16.27;3.78;;;;;;;11.03;93.02;100844.03;4998072;28;20022;-76
2021/10/26 07:18:14;;;;;;;20.58;4.82;;;;;;;11.06;92.99;100844.28;5013927;28;20030;-75
2021/10/26 07:20:39;;;;;;;14.93;3.90;;;;;;;11.09;92.99;100841.00;4996506;28;20030;-75
2021/10/26 07:23:05;;;;;;;22.30;5.20;;;;;;;11.07;92.97;100851.38;5014256;28;20095;-75
2021/10/26 07:25:30;;;;;;;22.30;4.78;;;;;;;11.07;92.96;100854.09;5015271;28;20031;-75
2021/10/26 07:27:59;;;;;;;15.15;4.28;;;;;;;11.06;92.93;100855.19;5014294;28;20026;-76
2021/10/26 07:30:32;;;;;;;25.90;5.20;;;;;;;11.04;92.83;100860.09;5015166;28;20018;-75
2021/10/26 07:33:00;;;;;;;18.27;4.57;;;;;;;11.01;92.67;100868.84;5012798;28;20469;-75
2021/10/26 07:35:30;;;;;;;17.52;4.40;;;;;;;10.96;92.69;100857.94;5013575;28;20414;-76
2021/10/26 07:37:55;;;;;;;15.05;4.10;;;;;;;10.94;92.66;100860.13;4997134;28;20022;-75
2021/10/26 07:40:20;;;;;;;13.18;3.20;;;;;;;10.93;92.60;100863.94;5014849;28;20389;-75
2021/10/26 07:42:46;;;;;;;9.93;2.53;;;;;;;10.89;91.92;100869.13;5013957;28;20018;-76
2021/10/26 07:45:11;;;;;;;12.35;2.55;;;;;;;10.91;91.44;100863.38;4980946;28;20136;-75
2021/10/26 07:47:37;;;;;;;25.42;4.45;;;;;;;10.95;91.21;100885.50;5013114;28;20018;-75
2021/10/26 07:50:03;;;;;;;13.82;2.72;;;;;;;10.95;90.85;100872.69;4996426;28;20025;-75
2021/10/26 07:52:29;;;;;;;8.23;2.30;;;;;;;10.95;90.62;100869.94;4996347;28;20105;-75
2021/10/26 07:54:55;;;;;;;12.55;3.17;;;;;;;10.97;90.36;100869.69;5014467;28;20026;-75
2021/10/26 07:57:21;;;;;;;11.55;3.95;;;;;;;10.97;90.26;100866.97;5005225;28;20018;-75
2021/10/26 07:59:47;;;;;;;12.98;4.32;;;;;;;11.00;90.44;100888.22;5011993;28;20492;-75
2021/10/26 08:02:14;;;;;;;15.25;4.00;;;;;;;11.03;90.51;100874.03;4996033;28;20034;-75
2021/10/26 08:04:39;;;;;;;14.65;3.60;;;;;;;11.08;90.72;100883.03;4996703;28;20037;-76
2021/10/26 08:07:06;;;;;;;20.92;3.45;;;;;;;11.10;90.28;100875.41;4996062;28;20021;-75
2021/10/26 08:09:32;;;;;;;13.38;4.00;;;;;;;11.14;90.45;100874.84;5014379;28;20033;-75
2021/10/26 08:11:57;;;;;;;11.88;2.60;;;;;;;11.15;90.34;100884.66;4995743;28;20076;-75
2021/10/26 08:14:24;;;;;;;14.05;3.90;;;;;;;11.18;90.14;100884.91;5014365;28;20030;-75
2021/10/26 08:16:51;;;;;;;21.05;3.60;;;;;;;11.22;90.19;100882.47;5012270;28;20014;-75
2021/10/26 08:19:16;;;;;;;17.83;3.45;;;;;;;11.25;89.96;100885.44;4991121;28;20026;-76
2021/10/26 08:21:42;;;;;;;14.52;3.17;;;;;;;11.28;89.63;100886.81;5010342;28;20030;-75
2021/10/26 08:24:08;;;;;;;20.23;3.92;;;;;;;11.32;89.55;100880.53;5002077;28;20452;-75
2021/10/26 08:26:43;;;;;;;13.38;3.85;;;;;;;11.37;89.55;100887.06;5011828;28;20029;-75
2021/10/26 08:29:15;;;;;;;15.45;3.78;;;;;;;11.41;89.48;100882.69;4978161;28;20019;-75
2021/10/26 08:31:47;;;;;;;15.95;3.95;;;;;;;11.45;89.49;100884.59;4996551;28;20032;-75
2021/10/26 08:37:11;;;;;;;16.27;4.00;;;;;;;11.52;89.22;100885.13;4969895;28;20405;-75
2021/10/26 08:39:38;;;;;;;21.77;4.00;;;;;;;11.55;89.04;100895.47;4988711;28;20077;-75
2021/10/26 08:42:03;;;;;;;26.27;5.03;;;;;;;11.61;88.98;100903.66;5008304;28;20029;-75
2021/10/26 08:44:29;;;;;;;12.55;3.90;;;;;;;11.63;89.18;100901.47;4993352;28;20028;-76
2021/10/26 08:46:55;;;;;;;16.92;3.80;;;;;;;11.66;88.73;100900.91;4992819;28;20129;-76
2021/10/26 08:49:21;;;;;;;11.70;3.42;;;;;;;11.64;88.49;100898.44;4994231;28;20049;-76
2021/10/26 08:51:48;;;;;;;12.07;2.80;;;;;;;11.64;88.06;100892.19;4989818;28;20080;-75
2021/10/26 08:54:13;;;;;;;16.17;3.58;;;;;;;11.64;87.69;100893.00;4974671;28;20022;-76
2021/10/26 08:56:39;;;;;;;17.98;3.58;;;;;;;11.61;87.51;100895.47;4972544;28;20470;-76
2021/10/26 08:59:06;;;;;;;20.40;3.90;;;;;;;11.60;87.49;100891.13;4989732;28;20378;-76
2021/10/26 09:01:31;;;;;;;18.30;3.17;;;;;;;11.61;87.38;100895.47;4991447;28;20113;-76
2021/10/26 09:04:17;;;;;;;13.48;3.15;;;;;;;11.63;87.23;100901.47;5007316;28;20397;-75
2021/10/26 09:06:53;;;;;;;16.65;3.40;;;;;;;11.66;87.21;100892.72;5009080;28;20049;-76
2021/10/26 09:09:19;;;;;;;17.55;3.60;;;;;;;11.69;87.08;100905.81;4990537;28;20036;-76
2021/10/26 09:17:26;;;;;;;12.57;3.80;;;;;;;11.70;87.20;100923.84;4992760;28;20069;-75
2021/10/26 09:19:51;;;;;;;15.55;3.58;;;;;;;11.70;87.06;100923.84;4989110;28;20030;-76
2021/10/26 09:22:17;;;;;;;15.18;3.30;;;;;;;11.73;87.28;100917.81;4990461;28;20112;-75
2021/10/26 09:25:05;;;;;;;13.25;3.38;;;;;;;11.74;86.87;100905.81;5005122;28;20491;-75
2021/10/26 09:27:31;;;;;;;12.18;3.33;;;;;;;11.77;86.81;100921.63;4990888;28;20029;-75
2021/10/26 09:30:03;;;;;;;12.15;3.35;;;;;;;11.79;86.55;100911.25;4988022;28;20021;-75
2021/10/26 09:32:46;;;;;;;20.08;5.15;;;;;;;11.80;86.48;100914.81;5007644;28;20404;-75
2021/10/26 09:35:12;;;;;;;;;;;;;;;11.85;86.74;100925.72;4992264;28;20480;-75
2021/10/26 09:37:40;;;;;;;21.40;4.22;;;;;;;11.82;86.38;100916.16;5005066;28;19913;-75
2021/10/26 09:40:07;;;;;;;16.30;4.70;;;;;;;11.83;86.52;100928.72;4988103;28;20158;-76
2021/10/26 09:42:45;;;;;;;19.58;4.55;;;;;;;11.82;86.75;100920.81;4999367;28;20040;-76
2021/10/26 09:45:23;;;;;;;18.45;4.57;;;;;;;11.81;87.02;100924.63;4983746;28;20205;-76
2021/10/26 09:47:48;;;;;;;21.13;4.65;;;;;;;11.82;87.22;100921.63;5007678;28;20040;-75
2021/10/26 09:50:14;;;;;;;16.23;4.15;;;;;;;11.79;86.84;100911.25;4986489;28;20013;-75
2021/10/26 09:52:43;;;;;;;15.48;4.60;;;;;;;11.83;87.02;100916.97;5004646;28;20421;-75
2021/10/26 09:55:20;;;;;;;20.60;4.45;;;;;;;11.82;87.13;100918.88;5003831;28;20034;-76
2021/10/26 09:57:47;;;;;;;19.98;4.68;;;;;;;11.85;86.99;100920.25;4974377;28;20133;-75
2021/10/26 10:00:13;;;;;;;16.65;4.65;;;;;;;11.84;86.73;100919.44;5005397;28;20210;-75
2021/10/26 10:02:39;;;;;;;16.17;3.88;;;;;;;11.90;86.56;100912.06;5000966;28;20064;-75
2021/10/26 10:05:24;;;;;;;15.77;3.80;;;;;;;11.98;86.58;100906.84;5004777;28;20427;-76
2021/10/26 10:07:49;;;;;;;16.67;4.18;;;;;;;12.06;86.17;100919.09;4990601;28;20042;-76
2021/10/26 10:10:15;;;;;;;21.13;4.13;;;;;;;12.12;86.28;100908.97;5006456;28;20029;-77
2021/10/26 10:12:42;;;;;;;19.42;3.95;;;;;;;12.14;86.03;100912.22;5009208;28;20451;-76
2021/10/26 10:15:08;;;;;;;11.23;3.28;;;;;;;12.15;85.74;100913.84;4974173;28;20044;-75
2021/10/26 10:17:35;;;;;;;14.50;3.90;;;;;;;12.13;85.60;100910.59;4972717;28;20125;-74
2021/10/26 10:20:06;;;;;;;10.45;3.60;;;;;;;12.12;85.50;100915.25;4988937;28;20026;-75
2021/10/26 10:22:31;;;;;;;15.63;3.10;;;;;;;12.12;85.32;100914.44;4987825;28;20045;-75
2021/10/26 10:25:00;;;;;;;20.52;3.35;;;;;;;12.13;85.16;100921.50;4957302;28;20029;-75
2021/10/26 10:27:30;;;;;;;14.55;3.13;;;;;;;12.14;84.81;100912.22;4992128;28;20029;-77
2021/10/26 10:29:56;;;;;;;15.88;3.40;;;;;;;12.15;84.48;100916.59;4989852;28;20021;-78
2021/10/26 10:32:31;;;;;;;18.13;3.88;;;;;;;12.17;84.34;100911.66;5007977;28;20121;-77
2021/10/26 10:34:58;;;;;;;11.40;3.08;;;;;;;12.21;84.25;100918.19;4986050;28;20057;-78
2021/10/26 10:37:23;;;;;;;19.65;3.53;;;;;;;12.26;83.97;100920.91;4986629;28;20037;-76
2021/10/26 10:39:50;;;;;;;19.13;3.13;;;;;;;12.31;83.71;100923.63;4983911;28;20022;-77
2021/10/26 10:42:20;;;;;;;9.18;2.50;;;;;;;12.31;83.10;100923.63;4988784;28;20402;-77
2021/10/26 10:44:45;;;;;;;10.15;2.80;;;;;;;12.33;82.58;100948.75;4992626;28;20026;-79
2021/10/26 10:47:36;;;;;;;13.07;3.70;;;;;;;12.34;82.54;100922.22;5009473;28;20036;-76
2021/10/26 10:50:22;;;;;;;11.10;3.22;;;;;;;12.38;82.43;100923.28;4990996;28;20112;-76
2021/10/26 10:53:08;;;;;;;14.43;3.38;;;;;;;12.43;82.19;100920.53;4985055;28;20037;-73
2021/10/26 10:55:34;;;;;;;18.40;3.72;;;;;;;12.49;81.93;100922.13;4987819;28;20038;-76
2021/10/26 10:58:28;;;;;;;12.90;3.08;;;;;;;12.40;81.73;100924.66;4990365;28;20049;-76
2021/10/26 11:01:16;;;;;;;8.82;3.05;;;;;;;12.43;81.44;100926.81;5008537;28;20039;-73
2021/10/26 11:03:41;;;;;;;12.07;3.35;;;;;;;12.51;81.39;100927.31;4986928;28;20593;-74
2021/10/26 11:06:08;;;;;;;17.35;4.18;;;;;;;12.54;81.26;100924.00;4979368;28;20169;-75
2021/10/26 11:08:45;;;;;;;15.18;4.47;;;;;;;12.59;81.31;100918.50;5011551;28;20034;-72
2021/10/26 11:11:11;;;;;;;11.85;3.72;;;;;;;12.58;81.13;100922.38;4986763;28;20030;-74
2021/10/26 11:13:37;;;;;;;16.30;3.47;;;;;;;12.43;81.09;100926.81;4994526;28;20083;-74
2021/10/26 11:16:07;;;;;;;15.82;3.45;;;;;;;12.43;81.39;100932.28;4979182;28;20021;-73
2021/10/26 11:18:33;;;;;;;14.88;3.30;;;;;;;12.47;81.15;100934.44;4995758;28;20113;-74
2021/10/26 11:20:59;;;;;;;10.00;2.92;;;;;;;12.37;80.82;100921.66;5007697;28;20100;-74
2021/10/26 11:23:33;;;;;;;11.82;3.28;;;;;;;12.31;80.93;100926.34;4977897;28;20049;-74
2021/10/26 11:26:06;;;;;;;12.15;3.25;;;;;;;12.41;80.92;100923.56;5012660;28;20032;-74